createdAt,value
2023-02-27T00:00:15.244Z,9.93
2023-02-27T00:02:46.804Z,9.60
2023-02-27T00:05:16.392Z,10.23
2023-02-27T00:07:45.356Z,9.93
2023-02-27T00:10:18.117Z,9.57
2023-02-27T00:12:47.102Z,9.20
2023-02-27T00:15:18.089Z,7.90
2023-02-27T00:17:48.230Z,7.60
2023-02-27T00:20:19.508Z,7.97
2023-02-27T00:22:50.070Z,7.50
2023-02-27T00:25:19.253Z,7.60
2023-02-27T00:27:48.138Z,7.80
2023-02-27T00:30:17.766Z,8.67
2023-02-27T00:32:48.153Z,8.33
2023-02-27T00:35:17.049Z,9.37
2023-02-27T00:37:45.874Z,7.90
2023-02-27T00:40:15.707Z,8.60
2023-02-27T00:42:46.490Z,7.97
2023-02-27T00:45:15.364Z,9.13
2023-02-27T00:47:44.354Z,9.30
2023-02-27T00:50:15.547Z,9.60
2023-02-27T00:52:44.797Z,10.40
2023-02-27T00:55:13.876Z,9.10
2023-02-27T00:57:43.020Z,8.37
2023-02-27T01:00:13.266Z,10.40
2023-02-27T01:02:42.287Z,9.33
2023-02-27T01:05:11.970Z,9.30
2023-02-27T01:07:42.204Z,9.43
2023-02-27T01:10:13.706Z,8.50
2023-02-27T01:12:42.700Z,9.63
2023-02-27T01:15:13.377Z,7.80
2023-02-27T01:17:42.278Z,9.17
2023-02-27T01:20:13.267Z,8.13
2023-02-27T01:22:44.021Z,8.63
2023-02-27T01:25:13.021Z,8.57
2023-02-27T01:27:42.213Z,7.73
2023-02-27T01:30:13.179Z,7.20
2023-02-27T01:32:41.964Z,8.10
2023-02-27T01:35:11.190Z,7.20
2023-02-27T01:37:40.133Z,7.10
2023-02-27T01:40:12.311Z,7.60
2023-02-27T01:42:41.173Z,7.70
2023-02-27T01:45:29.053Z,6.63
2023-02-27T01:48:05.340Z,7.20
2023-02-27T01:50:35.056Z,7.40
2023-02-27T01:53:05.315Z,6.67
2023-02-27T01:55:39.531Z,7.87
2023-02-27T01:58:11.386Z,6.07
2023-02-27T02:00:40.753Z,6.77
2023-02-27T02:03:18.630Z,6.40
2023-02-27T02:05:48.606Z,7.03
2023-02-27T02:08:20.361Z,6.13
2023-02-27T02:10:53.477Z,6.20
2023-02-27T02:13:23.423Z,7.30
2023-02-27T02:16:03.372Z,5.43
2023-02-27T02:18:40.095Z,6.33
2023-02-27T02:21:52.166Z,6.10
2023-02-27T02:24:45.567Z,5.00
2023-02-27T02:27:28.434Z,5.63
2023-02-27T02:30:30.014Z,6.00
2023-02-27T02:33:50.596Z,5.17
2023-02-27T02:36:52.775Z,5.37
2023-02-27T02:39:50.995Z,5.20
2023-02-27T02:42:27.193Z,4.90
2023-02-27T02:45:07.881Z,4.87
2023-02-27T02:47:46.959Z,5.30
2023-02-27T02:50:21.788Z,5.03
2023-02-27T02:53:02.512Z,4.97
2023-02-27T02:55:34.592Z,4.70
2023-02-27T02:58:11.324Z,5.73
2023-02-27T03:00:45.468Z,5.73
2023-02-27T03:03:20.608Z,4.70
2023-02-27T03:05:55.586Z,5.60
2023-02-27T03:08:28.422Z,5.73
2023-02-27T03:10:59.993Z,5.20
2023-02-27T03:13:35.268Z,4.10
2023-02-27T03:16:08.777Z,4.93
2023-02-27T03:18:45.036Z,5.90
2023-02-27T03:21:17.793Z,5.03
2023-02-27T03:23:52.735Z,5.23
2023-02-27T03:26:25.833Z,6.10
2023-02-27T03:29:02.155Z,5.80
2023-02-27T03:31:38.430Z,4.90
2023-02-27T03:34:16.157Z,4.90
2023-02-27T03:36:51.190Z,5.13
2023-02-27T03:39:29.136Z,5.47
2023-02-27T03:42:04.506Z,6.57
2023-02-27T03:44:42.713Z,5.37
2023-02-27T03:47:11.561Z,5.80
2023-02-27T03:49:40.428Z,4.90
2023-02-27T03:52:09.270Z,5.80
2023-02-27T03:54:41.282Z,6.90
2023-02-27T03:57:12.013Z,5.73
2023-02-27T03:59:42.547Z,5.43
2023-02-27T04:02:11.684Z,5.40
2023-02-27T04:04:40.603Z,5.20
2023-02-27T04:07:34.258Z,5.10
2023-02-27T04:10:23.415Z,4.43
2023-02-27T04:13:34.148Z,5.10
2023-02-27T04:16:35.065Z,5.03
2023-02-27T04:19:20.013Z,4.57
2023-02-27T04:21:58.653Z,5.23
2023-02-27T04:24:36.847Z,4.53
2023-02-27T04:27:15.159Z,5.40
2023-02-27T04:29:52.317Z,5.03
2023-02-27T04:32:25.858Z,4.40
2023-02-27T04:35:00.804Z,4.20
2023-02-27T04:37:37.009Z,4.60
2023-02-27T04:40:10.676Z,4.50
2023-02-27T04:42:43.632Z,4.93
2023-02-27T04:45:16.622Z,5.13
2023-02-27T04:47:51.470Z,4.53
2023-02-27T04:50:26.177Z,4.10
2023-02-27T04:52:59.472Z,5.10
2023-02-27T04:55:32.897Z,5.60
2023-02-27T04:58:06.931Z,5.40
2023-02-27T05:00:38.254Z,7.47
2023-02-27T05:03:15.164Z,6.67
2023-02-27T05:05:48.046Z,6.07
2023-02-27T05:08:22.926Z,5.33
2023-02-27T05:10:58.284Z,5.40
2023-02-27T05:13:33.340Z,5.77
2023-02-27T05:16:09.640Z,7.90
2023-02-27T05:18:38.510Z,10.97
2023-02-27T05:21:17.545Z,9.30
2023-02-27T05:23:55.852Z,10.63
2023-02-27T05:26:34.341Z,7.40
2023-02-27T05:29:09.986Z,8.10
2023-02-27T05:31:45.779Z,7.70
2023-02-27T05:34:18.766Z,5.60
2023-02-27T05:36:54.728Z,6.00
2023-02-27T05:39:27.441Z,6.70
2023-02-27T05:42:00.618Z,5.50
2023-02-27T05:44:33.176Z,5.87
2023-02-27T05:47:06.151Z,8.00
2023-02-27T05:49:38.935Z,7.30
2023-02-27T05:52:14.605Z,7.10
2023-02-27T05:54:50.600Z,6.70
2023-02-27T05:57:25.792Z,6.23
2023-02-27T05:59:59.751Z,6.30
2023-02-27T06:02:29.036Z,5.60
2023-02-27T06:04:58.040Z,5.37
2023-02-27T06:07:28.374Z,5.07
2023-02-27T06:09:57.461Z,6.30
2023-02-27T06:12:26.536Z,4.87
2023-02-27T06:14:58.156Z,4.90
2023-02-27T06:17:26.882Z,5.87
2023-02-27T06:19:59.432Z,4.73
2023-02-27T06:22:29.637Z,5.40
2023-02-27T06:24:58.286Z,5.27
2023-02-27T06:27:28.138Z,6.83
2023-02-27T06:29:57.917Z,7.10
2023-02-27T06:32:26.963Z,5.77
2023-02-27T06:34:55.766Z,6.70
2023-02-27T06:37:24.518Z,6.20
2023-02-27T06:39:54.787Z,5.30
2023-02-27T06:42:25.240Z,5.87
2023-02-27T06:44:54.205Z,5.90
2023-02-27T06:47:23.809Z,5.70
2023-02-27T06:49:52.399Z,6.10
2023-02-27T06:52:21.265Z,6.10
2023-02-27T06:54:50.064Z,5.87
2023-02-27T06:57:20.460Z,4.93
2023-02-27T06:59:49.288Z,4.90
2023-02-27T07:02:19.625Z,4.40
2023-02-27T07:04:48.454Z,4.67
2023-02-27T07:07:35.609Z,5.20
2023-02-27T07:10:06.889Z,5.53
2023-02-27T07:12:36.988Z,10.00
2023-02-27T07:15:06.416Z,5.70
2023-02-27T07:17:35.231Z,8.30
2023-02-27T07:20:04.313Z,6.33
2023-02-27T07:22:33.103Z,5.57
2023-02-27T07:25:04.187Z,5.97
2023-02-27T07:27:33.337Z,5.23
2023-02-27T07:30:03.615Z,5.40
2023-02-27T07:32:32.252Z,6.70
2023-02-27T07:35:00.979Z,6.87
2023-02-27T07:37:29.713Z,6.13
2023-02-27T07:39:58.519Z,7.07
2023-02-27T07:42:27.312Z,8.70
2023-02-27T07:44:55.978Z,5.93
2023-02-27T07:47:27.967Z,7.40
2023-02-27T07:49:56.737Z,10.27
2023-02-27T07:52:26.745Z,6.93
2023-02-27T07:54:55.357Z,7.10
2023-02-27T07:57:24.111Z,6.70
2023-02-27T07:59:52.765Z,7.00
2023-02-27T08:02:21.569Z,7.50
2023-02-27T08:04:53.248Z,8.30
2023-02-27T08:07:22.023Z,7.20
2023-02-27T08:09:50.743Z,6.63
2023-02-27T08:12:20.062Z,8.77
2023-02-27T08:14:49.074Z,7.00
2023-02-27T08:17:17.893Z,6.83
2023-02-27T08:19:46.927Z,6.30
2023-02-27T08:22:17.172Z,5.37
2023-02-27T08:24:46.823Z,5.37
2023-02-27T08:27:15.569Z,7.60
2023-02-27T08:29:45.762Z,7.40
2023-02-27T08:32:14.970Z,6.50
2023-02-27T08:34:43.866Z,6.67
2023-02-27T08:37:12.665Z,7.30
2023-02-27T08:39:43.126Z,4.77
2023-02-27T08:42:12.244Z,4.80
2023-02-27T08:44:41.008Z,6.00
2023-02-27T08:47:09.857Z,8.03
2023-02-27T08:49:38.788Z,6.17
2023-02-27T08:52:09.572Z,5.53
2023-02-27T08:54:38.500Z,6.23
2023-02-27T08:57:08.718Z,8.67
2023-02-27T08:59:37.655Z,8.33
2023-02-27T09:02:06.683Z,6.80
2023-02-27T09:04:36.332Z,5.63
2023-02-27T09:07:05.321Z,7.33
2023-02-27T09:09:34.098Z,9.10
2023-02-27T09:12:02.861Z,9.30
2023-02-27T09:14:33.316Z,8.97
2023-02-27T09:17:04.775Z,9.07
2023-02-27T09:19:36.253Z,7.70
2023-02-27T09:22:05.560Z,9.00
2023-02-27T09:24:34.403Z,6.47
2023-02-27T09:27:07.045Z,7.83
2023-02-27T09:29:37.527Z,5.87
2023-02-27T09:32:06.502Z,5.80
2023-02-27T09:34:35.656Z,5.20
2023-02-27T09:37:04.700Z,6.50
2023-02-27T09:39:33.556Z,5.20
2023-02-27T09:42:05.583Z,5.00
2023-02-27T09:44:47.437Z,5.77
2023-02-27T09:47:24.828Z,5.80
2023-02-27T09:50:23.963Z,5.60
2023-02-27T09:52:52.755Z,5.30
2023-02-27T09:55:23.717Z,5.43
2023-02-27T09:58:01.871Z,8.10
2023-02-27T10:00:47.103Z,6.23
2023-02-27T10:03:33.486Z,5.03
2023-02-27T10:06:16.938Z,7.30
2023-02-27T10:08:54.551Z,4.60
2023-02-27T10:11:30.057Z,4.00
2023-02-27T10:14:04.749Z,4.43
2023-02-27T10:16:36.277Z,5.73
2023-02-27T10:19:08.305Z,5.20
2023-02-27T10:21:41.215Z,5.53
2023-02-27T10:24:19.052Z,5.10
2023-02-27T10:26:49.270Z,6.73
2023-02-27T10:29:22.358Z,5.57
2023-02-27T10:31:59.451Z,5.63
2023-02-27T10:34:30.789Z,5.03
2023-02-27T10:37:02.168Z,5.10
2023-02-27T10:39:33.585Z,6.50
2023-02-27T10:42:10.961Z,7.10
2023-02-27T10:44:39.744Z,6.77
2023-02-27T10:47:14.781Z,4.20
2023-02-27T10:49:44.339Z,2.80
2023-02-27T10:52:15.146Z,3.83
2023-02-27T10:54:44.644Z,3.63
2023-02-27T10:57:28.934Z,3.77
2023-02-27T11:00:00.491Z,5.23
2023-02-27T11:02:37.743Z,2.70
2023-02-27T11:05:08.953Z,2.67
2023-02-27T11:07:40.259Z,3.10
2023-02-27T11:10:19.803Z,3.47
2023-02-27T11:13:01.456Z,3.40
2023-02-27T11:15:32.590Z,3.73
2023-02-27T11:18:27.585Z,3.00
2023-02-27T11:21:10.043Z,3.57
2023-02-27T11:23:50.535Z,2.83
2023-02-27T11:26:23.915Z,4.00
2023-02-27T11:29:15.172Z,5.50
2023-02-27T11:31:55.642Z,4.60
2023-02-27T11:34:30.179Z,3.60
2023-02-27T11:37:02.329Z,2.63
2023-02-27T11:39:38.201Z,2.97
2023-02-27T11:42:17.642Z,2.50
2023-02-27T11:44:59.389Z,3.53
2023-02-27T11:47:33.379Z,2.40
2023-02-27T11:50:34.266Z,3.40
2023-02-27T11:53:14.273Z,3.40
2023-02-27T11:55:44.381Z,2.27
2023-02-27T11:58:16.649Z,2.67
2023-02-27T12:00:50.757Z,2.50
2023-02-27T12:03:25.552Z,2.60
2023-02-27T12:05:58.528Z,3.10
2023-02-27T12:08:34.784Z,6.90
2023-02-27T12:11:14.264Z,6.10
2023-02-27T12:13:47.086Z,4.53
2023-02-27T12:16:23.097Z,3.50
2023-02-27T12:18:57.062Z,3.97
2023-02-27T12:21:32.229Z,3.83
2023-02-27T12:24:06.251Z,4.57
2023-02-27T12:26:38.268Z,4.20
2023-02-27T12:29:15.023Z,4.60
2023-02-27T12:31:49.999Z,3.67
2023-02-27T12:34:29.741Z,4.33
2023-02-27T12:37:04.015Z,4.80
2023-02-27T12:39:35.139Z,4.80
2023-02-27T12:42:28.991Z,4.60
2023-02-27T12:45:30.937Z,6.40
2023-02-27T12:48:15.243Z,3.93
2023-02-27T12:50:51.565Z,2.40
2023-02-27T12:53:45.033Z,2.70
2023-02-27T12:56:18.334Z,2.60
2023-02-27T12:58:57.180Z,2.70
2023-02-27T13:01:36.615Z,1.70
2023-02-27T13:04:17.059Z,1.50
2023-02-27T13:06:51.913Z,2.10
2023-02-27T13:09:34.126Z,2.00
2023-02-27T13:12:10.364Z,1.97
2023-02-27T13:14:47.852Z,1.93
2023-02-27T13:17:24.377Z,1.50
2023-02-27T13:19:56.534Z,1.87
2023-02-27T13:22:34.214Z,2.70
2023-02-27T13:25:11.438Z,2.90
2023-02-27T13:27:44.930Z,3.73
2023-02-27T13:30:19.624Z,3.93
2023-02-27T13:32:54.708Z,4.57
2023-02-27T13:35:30.798Z,6.07
2023-02-27T13:38:03.753Z,5.30
2023-02-27T13:40:39.310Z,4.90
2023-02-27T13:43:33.036Z,6.17
2023-02-27T13:46:03.188Z,6.57
2023-02-27T13:48:54.079Z,7.40
2023-02-27T13:51:59.841Z,7.17
2023-02-27T13:54:34.094Z,7.47
2023-02-27T13:57:26.446Z,7.50
2023-02-27T14:00:01.713Z,7.30
2023-02-27T14:02:59.355Z,7.57
2023-02-27T14:05:35.116Z,7.07
2023-02-27T14:08:15.567Z,7.60
2023-02-27T14:10:56.992Z,8.73
2023-02-27T14:14:01.776Z,8.17
2023-02-27T14:16:56.243Z,8.70
2023-02-27T14:19:50.734Z,8.33
2023-02-27T14:22:48.615Z,7.73
2023-02-27T14:25:25.965Z,7.83
2023-02-27T14:27:57.290Z,6.87
2023-02-27T14:30:34.619Z,6.90
2023-02-27T14:33:13.038Z,7.03
2023-02-27T14:35:46.501Z,7.60
2023-02-27T14:38:18.922Z,6.50
2023-02-27T14:40:59.271Z,7.13
2023-02-27T14:43:36.906Z,6.40
2023-02-27T14:46:17.371Z,5.40
2023-02-27T14:48:46.766Z,4.50
2023-02-27T14:51:18.176Z,4.53
2023-02-27T14:53:47.004Z,4.07
2023-02-27T14:56:21.319Z,4.97
2023-02-27T14:59:03.658Z,4.80
2023-02-27T15:01:38.992Z,4.60
2023-02-27T15:04:09.063Z,4.70
2023-02-27T15:06:44.507Z,4.80
2023-02-27T15:09:23.817Z,4.77
2023-02-27T15:12:03.576Z,4.57
2023-02-27T15:14:36.265Z,4.80
2023-02-27T15:17:16.067Z,7.97
2023-02-27T15:19:49.906Z,12.73
2023-02-27T15:22:37.569Z,9.60
2023-02-27T15:25:08.518Z,6.80
2023-02-27T15:27:38.946Z,7.03
2023-02-27T15:30:10.157Z,7.53
2023-02-27T15:32:43.344Z,6.93
2023-02-27T15:35:18.027Z,6.70
2023-02-27T15:37:52.046Z,6.33
2023-02-27T15:40:23.563Z,7.07
2023-02-27T15:42:53.500Z,7.37
2023-02-27T15:45:24.971Z,7.83
2023-02-27T15:47:55.382Z,6.90
2023-02-27T15:50:29.150Z,6.83
2023-02-27T15:53:04.602Z,7.10
2023-02-27T15:55:37.721Z,5.30
2023-02-27T15:58:19.387Z,7.50
2023-02-27T16:00:48.704Z,11.50
2023-02-27T16:03:24.620Z,9.47
2023-02-27T16:05:55.074Z,6.73
2023-02-27T16:08:24.460Z,6.60
2023-02-27T16:10:54.584Z,6.47
2023-02-27T16:13:31.485Z,6.83
2023-02-27T16:16:01.894Z,7.47
2023-02-27T16:18:35.963Z,7.00
2023-02-27T16:21:15.246Z,7.93
2023-02-27T16:23:48.699Z,8.77
2023-02-27T16:26:38.800Z,8.10
2023-02-27T16:29:19.022Z,9.77
2023-02-27T16:31:51.539Z,9.33
2023-02-27T16:34:44.296Z,8.73
2023-02-27T16:37:24.217Z,9.10
2023-02-27T16:39:54.760Z,9.00
2023-02-27T16:42:23.733Z,9.10
2023-02-27T16:44:52.752Z,8.70
2023-02-27T16:47:23.554Z,7.87
2023-02-27T16:49:55.240Z,7.80
2023-02-27T16:52:24.376Z,10.23
2023-02-27T16:54:53.800Z,11.13
2023-02-27T16:57:28.019Z,19.23
2023-02-27T16:59:57.645Z,18.80
2023-02-27T17:02:26.844Z,11.30
2023-02-27T17:04:57.603Z,11.17
2023-02-27T17:07:27.967Z,11.40
2023-02-27T17:09:57.153Z,12.13
2023-02-27T17:12:26.979Z,9.37
2023-02-27T17:14:56.964Z,9.23
2023-02-27T17:17:26.976Z,10.00
2023-02-27T17:19:58.605Z,9.93
2023-02-27T17:22:28.753Z,10.60
2023-02-27T17:24:57.774Z,9.50
2023-02-27T17:27:28.179Z,11.97
2023-02-27T17:29:58.465Z,11.70
2023-02-27T17:32:28.813Z,11.03
2023-02-27T17:35:00.714Z,10.97
2023-02-27T17:37:30.577Z,12.83
2023-02-27T17:40:06.118Z,12.73
2023-02-27T17:42:38.238Z,12.77
2023-02-27T17:45:12.521Z,12.40
2023-02-27T17:47:43.702Z,12.70
2023-02-27T17:50:16.171Z,12.80
2023-02-27T17:52:46.246Z,16.00
2023-02-27T17:55:17.545Z,15.17
2023-02-27T17:57:47.129Z,15.23
2023-02-27T18:00:18.020Z,16.97
2023-02-27T18:02:48.774Z,16.33
2023-02-27T18:05:21.332Z,14.97
2023-02-27T18:07:53.433Z,17.00
2023-02-27T18:10:24.560Z,16.10
2023-02-27T18:12:55.706Z,16.70
2023-02-27T18:15:26.396Z,18.17
2023-02-27T18:17:56.797Z,14.60
2023-02-27T18:20:34.035Z,15.83
2023-02-27T18:23:05.148Z,15.40
2023-02-27T18:25:40.133Z,14.53
2023-02-27T18:28:12.015Z,13.50
2023-02-27T18:30:42.352Z,14.77
2023-02-27T18:33:13.223Z,14.60
2023-02-27T18:35:45.930Z,11.27
2023-02-27T18:38:17.061Z,12.43
2023-02-27T18:40:48.170Z,11.80
2023-02-27T18:43:19.043Z,14.10
2023-02-27T18:45:49.848Z,15.40
2023-02-27T18:48:20.095Z,14.80
2023-02-27T18:50:52.025Z,15.80
2023-02-27T18:53:22.218Z,14.77
2023-02-27T18:55:53.093Z,15.13
2023-02-27T18:58:23.730Z,19.83
2023-02-27T19:00:54.799Z,19.07
2023-02-27T19:03:25.193Z,16.70
2023-02-27T19:05:58.059Z,16.07
2023-02-27T19:08:34.212Z,14.50
2023-02-27T19:11:04.581Z,14.70
2023-02-27T19:13:35.923Z,13.40
2023-02-27T19:16:11.992Z,16.07
2023-02-27T19:18:42.914Z,14.20
2023-02-27T19:21:15.380Z,13.27
2023-02-27T19:23:45.349Z,14.57
2023-02-27T19:26:16.135Z,15.47
2023-02-27T19:28:46.692Z,19.33
2023-02-27T19:31:18.708Z,16.20
2023-02-27T19:33:51.428Z,16.23
2023-02-27T19:36:27.570Z,19.47
2023-02-27T19:38:58.775Z,16.90
2023-02-27T19:41:33.623Z,16.97
2023-02-27T19:44:11.079Z,16.50
2023-02-27T19:49:45.857Z,15.53
2023-02-27T19:52:23.476Z,15.00
2023-02-27T19:54:54.811Z,15.43
2023-02-27T19:57:26.472Z,14.73
2023-02-27T19:59:57.173Z,14.80
2023-02-27T20:02:26.805Z,14.17
2023-02-27T20:04:57.378Z,15.20
2023-02-27T20:07:30.751Z,14.23
2023-02-27T20:10:02.723Z,14.37
2023-02-27T20:12:32.634Z,13.70
2023-02-27T20:15:16.307Z,14.23
2023-02-27T20:17:49.186Z,16.30
2023-02-27T20:20:26.595Z,15.17
2023-02-27T20:23:07.291Z,15.37
2023-02-27T20:25:41.981Z,13.80
2023-02-27T20:28:14.429Z,13.37
2023-02-27T20:30:57.724Z,13.77
2023-02-27T20:33:29.762Z,16.13
2023-02-27T20:36:21.263Z,16.30
2023-02-27T20:38:55.101Z,11.83
2023-02-27T20:41:31.434Z,13.47
2023-02-27T20:44:04.469Z,14.53
2023-02-27T20:46:38.132Z,10.13
2023-02-27T20:49:10.987Z,11.57
2023-02-27T20:51:45.788Z,12.30
2023-02-27T20:54:21.005Z,12.20
2023-02-27T20:57:01.373Z,12.20
2023-02-27T20:59:32.052Z,11.13
2023-02-27T21:02:05.374Z,11.70
2023-02-27T21:04:49.316Z,12.43
2023-02-27T21:07:23.630Z,11.37
2023-02-27T21:10:04.791Z,11.87
2023-02-27T21:12:34.738Z,12.87
2023-02-27T21:15:06.684Z,14.03
2023-02-27T21:17:36.263Z,11.87
2023-02-27T21:20:10.989Z,14.13
2023-02-27T21:22:43.601Z,13.43
2023-02-27T21:25:15.826Z,12.00
2023-02-27T21:27:45.586Z,12.10
2023-02-27T21:30:20.686Z,14.57
2023-02-27T21:32:55.760Z,13.60
2023-02-27T21:35:25.561Z,15.97
2023-02-27T21:37:56.039Z,16.60
2023-02-27T21:40:26.562Z,14.10
2023-02-27T21:42:55.375Z,20.87
2023-02-27T21:45:24.144Z,20.87
2023-02-27T21:47:53.259Z,19.83
2023-02-27T21:50:23.363Z,21.83
2023-02-27T21:52:52.310Z,19.10
2023-02-27T21:55:21.483Z,20.03
2023-02-27T21:57:51.934Z,20.83
2023-02-27T22:00:23.383Z,21.30
2023-02-27T22:02:52.262Z,23.70
2023-02-27T22:05:21.577Z,20.83
2023-02-27T22:07:50.417Z,21.57
2023-02-27T22:10:19.534Z,21.07
2023-02-27T22:12:48.456Z,20.23
2023-02-27T22:15:19.018Z,21.80
2023-02-27T22:17:50.618Z,21.63
2023-02-27T22:20:20.146Z,20.00
2023-02-27T22:22:49.038Z,22.90
2023-02-27T22:25:18.062Z,21.70
2023-02-27T22:27:47.300Z,22.40
2023-02-27T22:30:18.164Z,23.37
2023-02-27T22:32:47.033Z,21.53
2023-02-27T22:35:15.837Z,22.80
2023-02-27T22:37:45.121Z,21.33
2023-02-27T22:40:15.168Z,20.50
2023-02-27T22:42:44.237Z,25.47
2023-02-27T22:45:14.469Z,22.97
2023-02-27T22:47:45.292Z,22.70
2023-02-27T22:50:14.933Z,23.43
2023-02-27T22:52:43.898Z,22.53
2023-02-27T22:55:13.330Z,22.57
2023-02-27T22:57:42.222Z,23.70
2023-02-27T23:00:12.883Z,23.03
2023-02-27T23:02:44.057Z,24.30
2023-02-27T23:05:13.967Z,23.73
2023-02-27T23:07:43.901Z,25.27
2023-02-27T23:10:13.649Z,24.70
2023-02-27T23:12:42.502Z,21.60
2023-02-27T23:15:14.651Z,23.10
2023-02-27T23:17:56.523Z,22.43
2023-02-27T23:20:27.452Z,22.33
2023-02-27T23:22:56.584Z,24.17
2023-02-27T23:25:25.736Z,22.83
2023-02-27T23:27:54.472Z,24.87
2023-02-27T23:30:23.478Z,25.10
2023-02-27T23:32:53.783Z,25.37
2023-02-27T23:35:24.416Z,25.70
2023-02-27T23:37:53.945Z,23.87
2023-02-27T23:40:23.500Z,25.10
2023-02-27T23:42:52.347Z,24.60
2023-02-27T23:45:23.388Z,26.13
2023-02-27T23:47:55.146Z,26.00
2023-02-27T23:50:26.836Z,27.37
2023-02-27T23:52:56.970Z,25.93
2023-02-27T23:55:25.970Z,26.70
2023-02-27T23:57:56.020Z,27.27
